Time;durP1;ratioP1;P1;durP2;ratioP2;P2;SDS_P1;SDS_P2;PMS_P1;PMS_P2;Temp;Humidity;BMP_temperature;BMP_pressure;BME280_temperature;BME280_humidity;BME280_pressure;Samples;Min_cycle;Max_cycle;Signal;HPM_P1;HPM_P2
2021/09/28 00:01:13;;;;;;;5.53;2.60;;;17.40;99.90;;;;;;4901007;29;20785;-77
2021/09/28 00:03:42;;;;;;;3.10;1.40;;;17.30;99.90;;;;;;4901026;29;20790;-77
2021/09/28 00:06:11;;;;;;;2.57;2.47;;;17.40;99.90;;;;;;4900743;29;20839;-77
2021/09/28 00:08:42;;;;;;;2.83;1.53;;;17.40;99.90;;;;;;4900703;29;20419;-77
2021/09/28 00:11:11;;;;;;;2.10;1.07;;;17.40;99.90;;;;;;4900374;29;20478;-77
2021/09/28 00:13:40;;;;;;;2.40;1.50;;;17.30;99.90;;;;;;4900775;29;20409;-77
2021/09/28 00:16:08;;;;;;;1.17;0.80;;;17.20;99.90;;;;;;4902145;29;21016;-78
2021/09/28 00:18:37;;;;;;;2.07;0.87;;;17.20;99.90;;;;;;4903354;29;20835;-77
2021/09/28 00:21:05;;;;;;;1.93;0.87;;;17.20;99.90;;;;;;4902840;29;20484;-77
2021/09/28 00:23:34;;;;;;;1.87;0.70;;;17.20;99.90;;;;;;4902775;29;20407;-77
2021/09/28 00:26:02;;;;;;;1.47;1.37;;;17.30;99.90;;;;;;4901353;29;20568;-76
2021/09/28 00:28:30;;;;;;;2.77;2.30;;;17.40;99.90;;;;;;4901989;29;20438;-77
2021/09/28 00:30:58;;;;;;;1.97;1.87;;;17.30;99.90;;;;;;4902982;29;20439;-77
2021/09/28 00:33:28;;;;;;;1.13;0.90;;;17.30;99.90;;;;;;4902265;29;20431;-76
2021/09/28 00:35:57;;;;;;;1.33;1.07;;;17.30;99.90;;;;;;4901504;29;20413;-77
2021/09/28 00:38:25;;;;;;;1.10;0.90;;;17.30;99.90;;;;;;4901683;29;20405;-76
2021/09/28 00:40:54;;;;;;;1.20;0.60;;;17.20;99.90;;;;;;4900798;29;20469;-76
2021/09/28 00:43:23;;;;;;;1.20;0.90;;;17.20;99.90;;;;;;4900921;29;20414;-77
2021/09/28 00:45:51;;;;;;;3.07;2.20;;;17.30;99.90;;;;;;4900539;29;20553;-77
2021/09/28 00:48:19;;;;;;;2.03;0.80;;;17.30;99.90;;;;;;4898438;29;20442;-77
2021/09/28 00:50:47;;;;;;;3.83;1.47;;;17.30;99.90;;;;;;4898116;29;20796;-76
2021/09/28 00:53:15;;;;;;;2.40;2.20;;;17.40;99.90;;;;;;4899488;29;20967;-77
2021/09/28 00:55:43;;;;;;;1.93;0.80;;;17.50;99.90;;;;;;4898555;29;20513;-78
2021/09/28 00:58:12;;;;;;;1.53;1.00;;;17.50;99.90;;;;;;4899589;29;20438;-76
2021/09/28 01:00:41;;;;;;;2.97;1.17;;;17.50;99.90;;;;;;4899582;29;20420;-75
2021/09/28 01:03:10;;;;;;;1.30;1.00;;;17.50;99.90;;;;;;4899104;29;21008;-77
2021/09/28 01:05:39;;;;;;;3.20;2.03;;;17.40;99.90;;;;;;4898859;29;20448;-77
2021/09/28 01:08:07;;;;;;;1.20;0.80;;;17.30;99.90;;;;;;4899323;29;20421;-77
2021/09/28 01:10:36;;;;;;;2.50;1.70;;;17.40;99.90;;;;;;4897914;29;20405;-77
2021/09/28 01:13:04;;;;;;;1.67;1.00;;;17.30;99.90;;;;;;4899614;29;20421;-77
2021/09/28 01:15:33;;;;;;;1.10;0.73;;;17.30;99.90;;;;;;4900226;29;20504;-76
2021/09/28 01:18:02;;;;;;;4.80;4.43;;;17.20;99.90;;;;;;4900089;29;20413;-77
2021/09/28 01:20:30;;;;;;;8.97;7.90;;;17.20;99.90;;;;;;4900608;29;20801;-76
2021/09/28 01:22:59;;;;;;;7.40;6.07;;;17.10;99.90;;;;;;4900649;29;20429;-77
2021/09/28 01:25:27;;;;;;;5.97;5.10;;;17.10;99.90;;;;;;4899033;29;20553;-77
2021/09/28 01:27:56;;;;;;;7.53;6.00;;;17.10;99.90;;;;;;4898883;29;20488;-76
2021/09/28 01:30:23;;;;;;;6.03;5.43;;;17.10;99.90;;;;;;4899177;29;20452;-76
2021/09/28 01:32:52;;;;;;;9.53;6.33;;;17.10;99.90;;;;;;4899421;29;20836;-77
2021/09/28 01:35:20;;;;;;;7.57;6.87;;;17.10;99.90;;;;;;4902223;29;20460;-77
2021/09/28 01:37:48;;;;;;;7.73;6.70;;;17.10;99.90;;;;;;4914719;29;20453;-77
2021/09/28 01:40:17;;;;;;;11.53;7.17;;;17.10;99.90;;;;;;4908157;29;20409;-77
2021/09/28 01:42:45;;;;;;;10.10;6.13;;;17.00;99.90;;;;;;4871951;29;1076116;-78
2021/09/28 01:45:13;;;;;;;2.43;2.23;;;17.10;99.90;;;;;;4906385;29;20240;-78
2021/09/28 01:47:42;;;;;;;6.60;6.00;;;17.10;99.90;;;;;;4911385;29;20466;-77
2021/09/28 01:50:10;;;;;;;3.27;2.97;;;17.10;99.90;;;;;;4907428;29;20901;-78
2021/09/28 01:52:38;;;;;;;2.10;1.87;;;17.10;99.90;;;;;;4907745;29;20406;-78
2021/09/28 01:55:08;;;;;;;4.20;3.00;;;17.10;99.90;;;;;;4910704;29;20798;-78
2021/09/28 01:57:37;;;;;;;6.10;5.50;;;17.20;99.90;;;;;;4910639;29;20461;-78
2021/09/28 02:00:06;;;;;;;5.83;3.63;;;17.10;99.90;;;;;;4907620;29;20430;-76
2021/09/28 02:02:38;;;;;;;3.37;3.00;;;17.10;99.90;;;;;;4909018;29;20380;-79
2021/09/28 02:05:07;;;;;;;3.83;3.53;;;17.10;99.90;;;;;;4903873;29;20821;-78
2021/09/28 02:07:35;;;;;;;4.90;3.97;;;17.10;99.90;;;;;;4907297;29;20427;-78
2021/09/28 02:10:04;;;;;;;3.70;3.40;;;17.00;99.90;;;;;;4905142;29;20421;-78
2021/09/28 02:12:33;;;;;;;3.57;2.67;;;17.00;99.90;;;;;;4908662;29;20426;-79
2021/09/28 02:15:02;;;;;;;3.17;2.87;;;17.00;99.90;;;;;;4905541;29;20459;-77
2021/09/28 02:17:30;;;;;;;3.50;3.20;;;17.00;99.90;;;;;;4905274;29;20423;-78
2021/09/28 02:19:58;;;;;;;3.57;3.27;;;17.00;99.90;;;;;;4900909;29;20431;-77
2021/09/28 02:22:26;;;;;;;3.10;2.73;;;17.00;99.90;;;;;;4908078;29;20426;-78
2021/09/28 02:24:54;;;;;;;3.87;2.90;;;17.00;99.90;;;;;;4903194;29;20453;-78
2021/09/28 02:27:23;;;;;;;4.00;2.13;;;17.00;99.90;;;;;;4902515;29;20398;-78
2021/09/28 02:29:51;;;;;;;3.83;3.07;;;17.00;99.90;;;;;;4901503;29;20466;-78
2021/09/28 02:32:20;;;;;;;4.30;3.90;;;16.90;99.90;;;;;;4900633;29;20397;-77
2021/09/28 02:34:48;;;;;;;4.57;4.07;;;17.00;99.90;;;;;;4898041;29;20493;-77
2021/09/28 02:37:16;;;;;;;6.30;2.67;;;16.90;99.90;;;;;;4901055;29;20467;-77
2021/09/28 02:39:44;;;;;;;4.63;4.23;;;16.90;99.90;;;;;;4902068;29;20439;-76
2021/09/28 02:42:13;;;;;;;3.00;2.30;;;16.90;99.90;;;;;;4900650;29;20450;-76
2021/09/28 02:44:41;;;;;;;2.67;2.47;;;16.90;99.90;;;;;;4903223;29;20433;-77
2021/09/28 02:47:10;;;;;;;5.77;5.37;;;16.80;99.90;;;;;;4902310;29;20452;-78
2021/09/28 02:49:39;;;;;;;2.43;2.23;;;16.80;99.90;;;;;;4903576;29;20426;-78
2021/09/28 02:52:07;;;;;;;2.73;2.53;;;16.80;99.90;;;;;;4901976;29;20486;-77
2021/09/28 02:54:35;;;;;;;3.93;3.63;;;16.80;99.90;;;;;;4902163;29;20421;-77
2021/09/28 02:57:04;;;;;;;4.30;3.90;;;16.80;99.90;;;;;;4903279;29;20422;-76
2021/09/28 02:59:32;;;;;;;2.90;2.63;;;16.80;99.90;;;;;;4904051;29;20393;-77
2021/09/28 03:02:00;;;;;;;6.13;4.40;;;16.80;99.90;;;;;;4905547;29;20430;-76
2021/09/28 03:04:29;;;;;;;4.13;2.80;;;16.80;99.90;;;;;;4902115;29;21802;-78
2021/09/28 03:06:58;;;;;;;4.37;4.07;;;16.80;99.90;;;;;;4902261;29;20462;-77
2021/09/28 03:09:26;;;;;;;3.43;3.10;;;16.70;99.90;;;;;;4907710;29;20401;-78
2021/09/28 03:11:54;;;;;;;3.20;2.90;;;16.70;99.90;;;;;;4911827;29;20438;-77
2021/09/28 03:14:23;;;;;;;2.67;2.47;;;16.70;99.90;;;;;;4912452;29;20932;-77
2021/09/28 03:16:51;;;;;;;2.60;2.33;;;16.70;99.90;;;;;;4916925;29;20957;-78
2021/09/28 03:19:20;;;;;;;3.67;3.03;;;16.70;99.90;;;;;;4914565;29;20405;-78
2021/09/28 03:21:49;;;;;;;3.07;2.77;;;16.70;99.90;;;;;;4915349;29;20417;-78
2021/09/28 03:24:19;;;;;;;3.40;2.80;;;16.70;99.90;;;;;;4916171;29;20918;-78
2021/09/28 03:26:47;;;;;;;3.10;2.80;;;16.70;99.90;;;;;;4913720;29;20449;-77
2021/09/28 03:29:15;;;;;;;3.70;2.83;;;16.60;99.90;;;;;;4911433;29;20463;-79
2021/09/28 03:31:43;;;;;;;2.10;1.90;;;16.60;99.90;;;;;;4910691;29;20409;-77
2021/09/28 03:34:11;;;;;;;3.30;2.80;;;16.60;99.90;;;;;;4904522;29;20401;-77
2021/09/28 03:36:39;;;;;;;3.90;2.50;;;16.50;99.90;;;;;;4915692;29;20412;-76
2021/09/28 03:39:07;;;;;;;2.53;2.30;;;16.50;99.90;;;;;;4915986;29;20434;-78
2021/09/28 03:41:37;;;;;;;3.27;2.97;;;16.50;99.90;;;;;;4912337;29;20420;-77
2021/09/28 03:44:05;;;;;;;1.93;1.73;;;16.50;99.90;;;;;;4913438;29;20437;-78
2021/09/28 03:46:33;;;;;;;3.50;3.00;;;16.50;99.90;;;;;;4913044;29;20485;-77
2021/09/28 03:49:01;;;;;;;4.03;3.70;;;16.50;99.90;;;;;;4910585;29;20401;-79
2021/09/28 03:51:29;;;;;;;3.17;2.70;;;16.50;99.90;;;;;;4907154;29;20995;-77
2021/09/28 03:53:57;;;;;;;1.20;0.90;;;16.40;99.90;;;;;;4908106;29;20434;-77
2021/09/28 03:56:25;;;;;;;2.60;1.53;;;16.50;99.90;;;;;;4913446;29;20450;-77
2021/09/28 03:58:54;;;;;;;1.53;1.20;;;16.50;99.90;;;;;;4917019;29;20459;-78
2021/09/28 04:01:23;;;;;;;2.70;2.03;;;16.50;99.90;;;;;;4913490;29;20473;-77
2021/09/28 04:03:51;;;;;;;2.63;2.27;;;16.50;99.90;;;;;;4910561;29;20393;-77
2021/09/28 04:06:19;;;;;;;2.70;2.10;;;16.40;99.90;;;;;;4908825;29;20449;-78
2021/09/28 04:08:47;;;;;;;1.60;1.50;;;16.40;99.90;;;;;;4908126;29;20466;-78
2021/09/28 04:11:16;;;;;;;1.93;1.40;;;16.40;99.90;;;;;;4905981;29;20416;-78
2021/09/28 04:13:47;;;;;;;3.03;2.67;;;16.30;99.90;;;;;;4908280;29;20830;-78
2021/09/28 04:16:17;;;;;;;1.40;1.10;;;16.30;99.90;;;;;;4908755;29;20474;-78
2021/09/28 04:18:46;;;;;;;1.93;1.43;;;16.30;99.90;;;;;;4910962;29;20821;-78
2021/09/28 04:21:14;;;;;;;1.57;1.47;;;16.20;99.90;;;;;;4911292;29;20432;-78
2021/09/28 04:23:42;;;;;;;1.10;1.00;;;16.20;99.90;;;;;;4910850;29;20401;-76
2021/09/28 04:26:12;;;;;;;3.13;1.70;;;16.10;99.90;;;;;;4909637;29;20436;-77
2021/09/28 04:28:40;;;;;;;2.00;1.80;;;16.00;99.90;;;;;;4904333;29;20409;-77
2021/09/28 04:31:09;;;;;;;1.07;0.70;;;16.00;99.90;;;;;;4900738;29;20484;-77
2021/09/28 04:33:38;;;;;;;1.50;1.03;;;15.80;99.90;;;;;;4899911;29;20976;-77
2021/09/28 04:36:06;;;;;;;1.40;1.23;;;15.80;99.90;;;;;;4899545;29;20823;-77
2021/09/28 04:38:34;;;;;;;0.93;0.80;;;15.70;99.90;;;;;;4899135;29;20848;-77
2021/09/28 04:41:02;;;;;;;1.70;1.27;;;15.70;99.90;;;;;;4899083;29;20959;-78
2021/09/28 04:43:31;;;;;;;1.03;0.67;;;15.60;99.90;;;;;;4899384;29;20438;-77
2021/09/28 04:45:59;;;;;;;2.57;2.00;;;15.60;99.90;;;;;;4899723;29;20506;-77
2021/09/28 04:48:27;;;;;;;0.90;0.60;;;15.60;99.90;;;;;;4900063;29;20448;-78
2021/09/28 04:50:56;;;;;;;1.13;1.00;;;15.50;99.90;;;;;;4899905;29;20901;-76
2021/09/28 04:53:25;;;;;;;2.03;0.90;;;15.50;99.90;;;;;;4899062;29;20449;-76
2021/09/28 04:55:55;;;;;;;1.50;1.40;;;15.50;99.90;;;;;;4899718;29;20425;-78
2021/09/28 04:58:23;;;;;;;1.33;0.53;;;15.50;99.90;;;;;;4897769;29;20779;-76
2021/09/28 05:00:51;;;;;;;1.20;0.73;;;15.50;99.90;;;;;;4896583;29;20565;-76
2021/09/28 05:03:20;;;;;;;0.80;0.50;;;15.40;99.90;;;;;;4896954;29;20865;-77
2021/09/28 05:05:48;;;;;;;1.00;0.50;;;15.40;99.90;;;;;;4897407;29;20501;-77
2021/09/28 05:08:18;;;;;;;0.80;0.50;;;15.40;99.90;;;;;;4897916;29;20539;-77
2021/09/28 05:10:47;;;;;;;0.80;0.40;;;15.30;99.90;;;;;;4898122;29;20405;-77
2021/09/28 05:13:15;;;;;;;1.23;0.70;;;15.30;99.90;;;;;;4898364;29;20833;-76
2021/09/28 05:15:44;;;;;;;0.80;0.40;;;15.30;99.90;;;;;;4897880;29;20484;-76
2021/09/28 05:18:12;;;;;;;0.80;0.40;;;15.30;99.90;;;;;;4897585;29;20781;-76
2021/09/28 05:20:40;;;;;;;0.80;0.50;;;15.30;99.90;;;;;;4897685;29;20441;-78
2021/09/28 05:23:08;;;;;;;0.80;0.40;;;15.30;99.90;;;;;;4898633;29;20409;-78
2021/09/28 05:25:38;;;;;;;0.80;0.50;;;15.20;99.90;;;;;;4898906;29;20462;-77
2021/09/28 05:28:06;;;;;;;0.90;0.50;;;15.20;99.90;;;;;;4898598;29;20525;-78
2021/09/28 05:30:34;;;;;;;0.80;0.40;;;15.20;99.90;;;;;;4898314;29;20423;-76
2021/09/28 05:33:02;;;;;;;0.80;0.40;;;15.20;99.90;;;;;;4898844;29;20482;-76
2021/09/28 05:35:30;;;;;;;0.80;0.40;;;15.20;99.90;;;;;;4897647;29;20448;-77
2021/09/28 05:37:58;;;;;;;0.80;0.40;;;15.30;99.90;;;;;;4898261;29;20423;-78
2021/09/28 05:40:26;;;;;;;0.80;0.40;;;15.30;99.90;;;;;;4898022;29;20465;-78
2021/09/28 05:42:56;;;;;;;0.80;0.40;;;15.30;99.90;;;;;;4898269;29;20453;-76
2021/09/28 05:45:24;;;;;;;0.97;0.77;;;15.30;99.90;;;;;;4898081;29;20446;-76
2021/09/28 05:47:52;;;;;;;1.10;0.50;;;15.30;99.90;;;;;;4897784;29;20704;-76
2021/09/28 05:50:21;;;;;;;1.10;0.60;;;15.40;99.90;;;;;;4897830;29;20397;-78
2021/09/28 05:52:51;;;;;;;1.90;1.80;;;15.40;99.90;;;;;;4896589;29;20962;-76
2021/09/28 05:55:19;;;;;;;0.80;0.40;;;15.50;99.90;;;;;;4896502;29;20462;-76
2021/09/28 05:57:47;;;;;;;0.80;0.40;;;15.50;99.90;;;;;;4897925;29;20494;-76
2021/09/28 06:00:18;;;;;;;0.80;0.40;;;15.50;99.90;;;;;;4898046;29;20798;-76
2021/09/28 06:02:46;;;;;;;1.40;0.53;;;15.60;99.90;;;;;;4897701;29;20814;-76
2021/09/28 06:05:15;;;;;;;0.80;0.40;;;15.70;99.90;;;;;;4897701;29;20460;-75
2021/09/28 06:07:44;;;;;;;0.80;0.40;;;15.60;99.90;;;;;;4896754;29;20477;-77
2021/09/28 06:10:12;;;;;;;0.80;0.40;;;15.60;99.90;;;;;;4897035;29;20796;-77
2021/09/28 06:12:40;;;;;;;0.80;0.40;;;15.70;99.90;;;;;;4897256;29;20430;-78
2021/09/28 06:15:09;;;;;;;0.80;0.40;;;15.60;99.90;;;;;;4897507;29;20474;-76
2021/09/28 06:17:39;;;;;;;0.80;0.40;;;15.60;99.90;;;;;;4897357;29;20793;-77
2021/09/28 06:20:09;;;;;;;0.83;0.50;;;15.50;99.90;;;;;;4897567;29;20465;-78
2021/09/28 06:22:37;;;;;;;0.90;0.50;;;15.50;99.90;;;;;;4897171;29;20401;-76
2021/09/28 06:25:06;;;;;;;0.80;0.40;;;15.50;99.90;;;;;;4897945;29;20473;-77
2021/09/28 06:27:35;;;;;;;0.80;0.47;;;15.40;99.90;;;;;;4897955;29;20818;-77
2021/09/28 06:30:05;;;;;;;0.80;0.50;;;15.50;99.90;;;;;;4897638;29;20508;-78
2021/09/28 06:32:33;;;;;;;0.80;0.40;;;15.60;99.90;;;;;;4897064;29;20438;-77
2021/09/28 06:35:03;;;;;;;0.80;0.40;;;15.60;99.90;;;;;;4897730;29;20433;-77
2021/09/28 06:37:31;;;;;;;1.73;0.50;;;15.60;99.90;;;;;;4904973;29;20909;-77
2021/09/28 06:39:59;;;;;;;1.10;0.90;;;15.60;99.90;;;;;;4915099;29;20538;-78
2021/09/28 06:42:27;;;;;;;0.80;0.60;;;15.70;99.90;;;;;;4893991;29;20450;-77
2021/09/28 06:44:55;;;;;;;1.10;0.70;;;15.80;99.90;;;;;;4896953;29;20487;-77
2021/09/28 06:47:24;;;;;;;0.80;0.47;;;15.80;99.90;;;;;;4896979;29;20416;-78
2021/09/28 06:49:52;;;;;;;1.07;0.80;;;15.70;99.90;;;;;;4896750;29;20527;-78
2021/09/28 06:52:22;;;;;;;0.80;0.40;;;15.60;99.90;;;;;;4901304;29;20405;-76
2021/09/28 06:54:50;;;;;;;0.80;0.40;;;15.60;99.90;;;;;;4915516;29;20446;-78
2021/09/28 06:57:18;;;;;;;0.80;0.40;;;15.60;99.90;;;;;;4914371;29;20477;-77
2021/09/28 06:59:46;;;;;;;0.80;0.40;;;15.70;99.90;;;;;;4916872;29;20815;-79
2021/09/28 07:02:15;;;;;;;0.80;0.40;;;15.80;99.90;;;;;;4900147;29;20417;-77
2021/09/28 07:04:43;;;;;;;0.90;0.50;;;15.80;99.90;;;;;;4896982;29;20425;-78
2021/09/28 07:07:11;;;;;;;0.80;0.40;;;15.90;99.90;;;;;;4896512;29;20920;-77
2021/09/28 07:09:41;;;;;;;0.90;0.60;;;15.90;99.90;;;;;;4896879;29;20451;-78
2021/09/28 07:12:13;;;;;;;0.80;0.40;;;15.90;99.90;;;;;;4897811;29;20788;-79
2021/09/28 07:14:41;;;;;;;0.80;0.40;;;15.80;99.90;;;;;;4897707;29;20792;-78
2021/09/28 07:17:09;;;;;;;0.80;0.40;;;15.70;99.90;;;;;;4899130;29;20908;-80
2021/09/28 07:19:39;;;;;;;0.80;0.47;;;15.70;99.90;;;;;;4896027;29;20812;-78
2021/09/28 07:22:07;;;;;;;0.80;0.40;;;15.70;99.90;;;;;;4897526;29;20409;-76
2021/09/28 07:24:35;;;;;;;0.80;0.40;;;15.70;99.90;;;;;;4896429;29;20460;-76
2021/09/28 07:27:05;;;;;;;0.80;0.40;;;15.70;99.90;;;;;;4897590;29;20418;-79
2021/09/28 07:29:34;;;;;;;0.80;0.40;;;15.70;99.90;;;;;;4897619;29;20480;-80
2021/09/28 07:32:04;;;;;;;0.80;0.40;;;15.80;99.90;;;;;;4897423;29;20831;-76
2021/09/28 07:34:32;;;;;;;0.80;0.40;;;15.70;99.90;;;;;;4896552;29;20468;-77
2021/09/28 07:37:00;;;;;;;0.93;0.83;;;15.70;99.90;;;;;;4902839;29;20417;-80
2021/09/28 07:39:28;;;;;;;0.80;0.40;;;15.70;99.90;;;;;;4908421;29;20445;-79
2021/09/28 07:41:56;;;;;;;0.80;0.50;;;15.70;99.90;;;;;;4907177;29;20441;-77
2021/09/28 07:44:26;;;;;;;0.80;0.50;;;15.60;99.90;;;;;;4918811;29;20437;-77
2021/09/28 07:46:54;;;;;;;0.80;0.50;;;15.60;99.90;;;;;;4912045;29;20421;-77
2021/09/28 07:49:22;;;;;;;0.80;0.50;;;15.60;99.90;;;;;;4908007;29;20441;-78
2021/09/28 07:51:50;;;;;;;0.80;0.40;;;15.60;99.90;;;;;;4903130;29;20442;-79
2021/09/28 07:54:18;;;;;;;0.80;0.40;;;15.60;99.90;;;;;;4910352;29;20405;-77
2021/09/28 07:56:46;;;;;;;0.80;0.40;;;15.70;99.90;;;;;;4910141;29;20458;-78
2021/09/28 07:59:15;;;;;;;0.87;0.47;;;15.80;99.90;;;;;;4912646;29;20408;-77
2021/09/28 08:01:45;;;;;;;0.80;0.40;;;15.60;99.90;;;;;;4909287;29;20444;-77
2021/09/28 08:04:19;;;;;;;0.80;0.40;;;15.40;99.90;;;;;;4913410;29;20427;-78
2021/09/28 08:06:47;;;;;;;0.90;0.50;;;15.20;99.90;;;;;;4916012;29;20436;-77
2021/09/28 08:09:16;;;;;;;0.80;0.40;;;15.00;99.90;;;;;;4916145;29;20497;-78
2021/09/28 08:11:44;;;;;;;0.80;0.40;;;15.00;99.90;;;;;;4912362;29;20405;-77
2021/09/28 08:14:12;;;;;;;0.90;0.50;;;15.00;99.90;;;;;;4909230;29;20730;-78
2021/09/28 08:16:40;;;;;;;1.40;0.60;;;15.00;99.90;;;;;;4910604;29;20442;-76
2021/09/28 08:19:10;;;;;;;0.83;0.50;;;14.90;99.90;;;;;;4915244;29;20412;-77
2021/09/28 08:21:38;;;;;;;0.80;0.40;;;14.90;99.90;;;;;;4910181;29;20409;-77
2021/09/28 08:24:08;;;;;;;0.80;0.40;;;14.80;99.90;;;;;;4920442;29;20441;-76
2021/09/28 08:29:27;;;;;;;0.80;0.40;;;14.90;99.90;;;;;;4867274;29;20447;-77
2021/09/28 08:31:57;;;;;;;0.80;0.40;;;15.00;99.90;;;;;;4906808;29;20492;-77
2021/09/28 08:34:26;;;;;;;0.80;0.40;;;14.90;99.90;;;;;;4911653;29;20413;-77
2021/09/28 08:36:54;;;;;;;0.80;0.40;;;15.00;99.90;;;;;;4911667;29;20458;-77
2021/09/28 08:39:22;;;;;;;0.80;0.40;;;15.00;99.90;;;;;;4909700;29;20413;-78
2021/09/28 08:41:51;;;;;;;1.47;0.60;;;15.10;99.90;;;;;;4907918;29;20437;-78
2021/09/28 08:44:19;;;;;;;0.80;0.40;;;15.20;99.90;;;;;;4915255;29;20420;-78
2021/09/28 08:46:49;;;;;;;0.80;0.40;;;15.30;99.90;;;;;;4921333;29;20518;-80
2021/09/28 08:49:18;;;;;;;0.80;0.40;;;15.50;99.90;;;;;;4902039;29;20521;-77
2021/09/28 08:51:49;;;;;;;0.80;0.40;;;15.80;99.90;;;;;;4900082;29;20444;-77
2021/09/28 08:54:18;;;;;;;2.80;0.50;;;15.90;99.90;;;;;;4900694;29;20520;-77
2021/09/28 08:56:47;;;;;;;0.80;0.43;;;16.00;99.90;;;;;;4900735;29;20405;-77
2021/09/28 08:59:15;;;;;;;0.80;0.40;;;15.90;99.90;;;;;;4898825;29;20500;-78
2021/09/28 09:01:55;;;;;;;0.80;0.50;;;15.70;99.90;;;;;;4903144;29;20833;-77
2021/09/28 09:04:25;;;;;;;0.80;0.40;;;15.70;99.90;;;;;;4906882;29;20404;-77
2021/09/28 09:06:55;;;;;;;0.80;0.40;;;15.90;99.90;;;;;;4904188;29;20530;-76
2021/09/28 09:09:47;;;;;;;0.80;0.40;;;16.00;99.90;;;;;;4905552;29;20437;-78
2021/09/28 09:12:29;;;;;;;0.80;0.40;;;16.00;99.90;;;;;;4907342;29;20417;-77
2021/09/28 09:15:22;;;;;;;0.80;0.40;;;16.00;99.90;;;;;;4904532;29;21005;-78
2021/09/28 09:17:53;;;;;;;0.80;0.40;;;16.00;99.90;;;;;;4907131;29;20811;-79
2021/09/28 09:20:34;;;;;;;1.10;0.60;;;16.10;99.90;;;;;;4904697;29;20397;-78
2021/09/28 09:23:21;;;;;;;0.80;0.40;;;16.10;99.90;;;;;;4923760;29;20416;-77
2021/09/28 09:26:02;;;;;;;0.80;0.40;;;16.00;99.90;;;;;;4925771;29;20416;-77
2021/09/28 09:28:32;;;;;;;0.90;0.70;;;15.90;99.90;;;;;;4922346;29;20407;-77
2021/09/28 09:31:14;;;;;;;1.10;0.90;;;15.90;99.90;;;;;;4901091;29;20491;-77
2021/09/28 09:33:45;;;;;;;0.80;0.40;;;15.70;99.90;;;;;;4882312;29;20529;-77
2021/09/28 09:36:17;;;;;;;0.80;0.40;;;15.60;99.90;;;;;;4882226;29;20777;-77
2021/09/28 09:38:48;;;;;;;0.80;0.40;;;15.60;99.90;;;;;;4900234;29;20978;-78
2021/09/28 09:41:17;;;;;;;0.80;0.47;;;15.60;99.90;;;;;;4901909;29;20424;-78
2021/09/28 09:43:48;;;;;;;2.13;1.93;;;15.70;99.90;;;;;;4906939;29;20464;-77
2021/09/28 09:46:18;;;;;;;1.13;1.03;;;15.90;99.90;;;;;;4916722;29;20434;-77
2021/09/28 09:48:48;;;;;;;1.00;0.60;;;15.80;99.90;;;;;;4896271;29;20439;-77
2021/09/28 09:51:19;;;;;;;1.00;0.80;;;15.90;99.90;;;;;;4900048;29;20405;-77
2021/09/28 09:53:54;;;;;;;0.80;0.40;;;16.00;99.90;;;;;;4901825;29;20438;-77
2021/09/28 09:56:23;;;;;;;1.00;0.80;;;16.10;99.90;;;;;;4903202;29;20841;-77
2021/09/28 09:58:51;;;;;;;0.90;0.50;;;16.20;99.90;;;;;;4910961;29;20448;-77
2021/09/28 10:01:19;;;;;;;0.80;0.40;;;16.20;99.90;;;;;;4913103;29;20428;-76
2021/09/28 10:03:49;;;;;;;0.80;0.50;;;16.20;99.90;;;;;;4909616;29;20413;-77
2021/09/28 10:06:17;;;;;;;0.80;0.40;;;16.10;99.90;;;;;;4903464;29;20435;-76
2021/09/28 10:08:45;;;;;;;0.80;0.40;;;16.30;99.90;;;;;;4898938;29;20470;-76
2021/09/28 10:11:15;;;;;;;0.83;0.47;;;16.60;99.90;;;;;;4898556;29;20959;-76
2021/09/28 10:13:53;;;;;;;1.20;0.70;;;16.80;99.90;;;;;;4898361;29;20393;-76
2021/09/28 10:16:52;;;;;;;0.80;0.50;;;16.80;99.90;;;;;;4897898;29;20519;-78
2021/09/28 10:19:41;;;;;;;0.80;0.40;;;16.60;99.90;;;;;;4897583;29;20409;-76
2021/09/28 10:22:50;;;;;;;0.90;0.60;;;16.60;99.90;;;;;;4909527;29;20428;-77
2021/09/28 10:25:33;;;;;;;0.80;0.40;;;16.60;99.90;;;;;;4916237;29;20545;-77
2021/09/28 10:28:38;;;;;;;0.80;0.50;;;16.80;99.90;;;;;;4903948;29;20423;-77
2021/09/28 10:31:12;;;;;;;0.80;0.43;;;16.80;99.90;;;;;;4878645;29;20441;-77
2021/09/28 10:33:53;;;;;;;0.80;0.40;;;16.70;99.90;;;;;;4879720;29;20436;-78
2021/09/28 10:36:25;;;;;;;0.80;0.50;;;16.90;99.90;;;;;;4880831;29;20518;-77
2021/09/28 10:38:59;;;;;;;0.80;0.40;;;16.90;99.90;;;;;;4896219;29;20523;-77
2021/09/28 10:41:38;;;;;;;0.90;0.60;;;16.90;99.90;;;;;;4896759;29;20535;-76
2021/09/28 10:44:50;;;;;;;0.80;0.40;;;17.00;99.90;;;;;;4896285;29;20431;-75
2021/09/28 10:47:52;;;;;;;0.80;0.40;;;17.20;99.90;;;;;;4897183;29;20945;-76
2021/09/28 10:50:29;;;;;;;1.30;0.87;;;17.10;99.90;;;;;;4896954;29;20560;-77
2021/09/28 10:52:59;;;;;;;0.80;0.40;;;16.90;99.90;;;;;;4896417;29;20431;-77
2021/09/28 10:55:30;;;;;;;0.80;0.50;;;16.80;99.90;;;;;;4896388;29;20454;-78
2021/09/28 10:58:01;;;;;;;0.80;0.50;;;16.90;99.90;;;;;;4897015;29;20408;-79
2021/09/28 11:00:31;;;;;;;0.80;0.40;;;16.90;99.90;;;;;;4897122;29;20413;-76
2021/09/28 11:03:02;;;;;;;0.80;0.40;;;16.90;99.90;;;;;;4897568;29;20805;-76
2021/09/28 11:05:37;;;;;;;0.90;0.50;;;16.90;99.90;;;;;;4896753;29;20537;-77
2021/09/28 11:08:07;;;;;;;0.90;0.50;;;17.10;99.90;;;;;;4896803;29;20441;-77
2021/09/28 11:10:39;;;;;;;0.80;0.40;;;17.20;99.90;;;;;;4895856;29;20964;-77
2021/09/28 11:13:11;;;;;;;0.90;0.50;;;17.20;99.90;;;;;;4896127;29;20429;-77
2021/09/28 11:15:40;;;;;;;0.80;0.50;;;17.10;99.90;;;;;;4895736;29;20516;-76
2021/09/28 11:18:10;;;;;;;0.80;0.43;;;16.90;99.90;;;;;;4896015;29;20389;-76
2021/09/28 11:20:39;;;;;;;2.60;1.90;;;16.90;99.90;;;;;;4896130;29;20409;-77
2021/09/28 11:23:10;;;;;;;0.90;0.50;;;17.10;99.90;;;;;;4898179;29;20440;-77
2021/09/28 11:25:40;;;;;;;0.90;0.40;;;17.30;99.90;;;;;;4895665;29;20466;-76
2021/09/28 11:28:11;;;;;;;0.90;0.40;;;17.50;99.90;;;;;;4895633;29;20771;-78
2021/09/28 11:30:41;;;;;;;0.90;0.40;;;17.60;99.90;;;;;;4894722;29;20445;-77
2021/09/28 11:33:11;;;;;;;0.90;0.60;;;17.80;99.90;;;;;;4896219;29;20505;-76
2021/09/28 11:35:39;;;;;;;1.43;0.87;;;17.80;99.90;;;;;;4899259;29;20492;-76
2021/09/28 11:38:08;;;;;;;0.90;0.53;;;17.80;99.90;;;;;;4899917;29;20860;-76
2021/09/28 11:40:39;;;;;;;0.90;0.50;;;17.80;99.90;;;;;;4900161;29;20464;-76
2021/09/28 11:43:19;;;;;;;1.03;0.50;;;18.00;99.90;;;;;;4900293;29;20464;-78
2021/09/28 11:45:59;;;;;;;0.90;0.50;;;18.30;99.90;;;;;;4900356;29;20470;-76
2021/09/28 11:48:37;;;;;;;1.10;0.50;;;18.50;99.90;;;;;;4899619;29;20425;-79
2021/09/28 11:51:07;;;;;;;0.90;0.50;;;18.50;99.90;;;;;;4901263;29;20443;-78
2021/09/28 11:53:38;;;;;;;0.90;0.40;;;18.40;99.90;;;;;;4900939;29;20775;-78
2021/09/28 11:56:07;;;;;;;0.90;0.40;;;18.50;99.90;;;;;;4900118;29;20425;-76
2021/09/28 11:58:36;;;;;;;0.90;0.50;;;18.60;99.90;;;;;;4899841;29;20970;-75
2021/09/28 12:01:07;;;;;;;1.00;0.50;;;18.60;99.90;;;;;;4900167;29;20925;-78
2021/09/28 12:03:41;;;;;;;1.00;0.60;;;18.50;99.90;;;;;;4899819;29;20404;-76
2021/09/28 12:06:19;;;;;;;1.00;0.80;;;18.60;99.90;;;;;;4899454;29;20465;-75
2021/09/28 12:08:49;;;;;;;1.00;0.50;;;18.40;99.90;;;;;;4899639;29;20409;-74
2021/09/28 12:11:18;;;;;;;0.90;0.40;;;18.10;99.90;;;;;;4895756;29;20539;-76
2021/09/28 12:13:48;;;;;;;0.90;0.50;;;18.10;99.90;;;;;;4900280;29;20489;-75
2021/09/28 12:16:20;;;;;;;0.90;0.50;;;18.00;99.90;;;;;;4899351;29;20978;-75
2021/09/28 12:19:04;;;;;;;0.90;0.50;;;18.10;99.90;;;;;;4899450;29;20877;-74
2021/09/28 12:21:33;;;;;;;0.90;0.50;;;18.30;99.90;;;;;;4897382;29;20769;-75
2021/09/28 12:24:13;;;;;;;0.90;0.43;;;18.50;99.90;;;;;;4899225;29;20508;-74
2021/09/28 12:26:41;;;;;;;0.90;0.40;;;18.90;99.90;;;;;;4899244;29;20444;-77
2021/09/28 12:29:17;;;;;;;0.90;0.50;;;19.20;99.90;;;;;;4898234;29;20458;-76
2021/09/28 12:31:45;;;;;;;0.90;0.40;;;19.10;99.90;;;;;;4899047;29;20476;-76
2021/09/28 12:34:15;;;;;;;1.10;0.50;;;19.00;99.90;;;;;;4899552;29;20416;-77
2021/09/28 12:36:43;;;;;;;0.90;0.50;;;18.80;99.90;;;;;;4897964;29;20536;-77
2021/09/28 12:39:25;;;;;;;4.80;0.70;;;18.70;99.90;;;;;;4899220;29;20398;-75
2021/09/28 12:42:07;;;;;;;1.10;0.50;;;18.70;99.90;;;;;;4898928;29;20465;-77
2021/09/28 12:44:38;;;;;;;0.90;0.50;;;18.90;99.90;;;;;;4896062;29;20447;-77
2021/09/28 12:47:25;;;;;;;0.90;0.40;;;19.00;99.90;;;;;;4897878;29;20909;-75
2021/09/28 12:49:55;;;;;;;0.90;0.40;;;19.00;99.90;;;;;;4897969;29;20409;-76
2021/09/28 12:52:23;;;;;;;0.90;0.40;;;19.00;99.90;;;;;;4895481;29;20969;-76
2021/09/28 12:54:51;;;;;;;0.97;0.47;;;19.10;99.90;;;;;;4895394;29;20515;-76
2021/09/28 12:57:19;;;;;;;0.90;0.40;;;19.20;99.90;;;;;;4895109;29;20435;-76
2021/09/28 12:59:49;;;;;;;1.10;0.60;;;19.50;99.90;;;;;;4898976;29;20434;-76
2021/09/28 13:02:23;;;;;;;0.90;0.40;;;19.50;99.90;;;;;;4899538;29;20885;-76
2021/09/28 13:04:52;;;;;;;0.93;0.43;;;19.40;99.90;;;;;;4895466;29;20462;-75